This is the latest recevied weather packets stored in our database for station/object DB2AG-13. If no packets are shown the sender has not sent any weather packets the latest 10 day(s).
| Time | Temp. | Humidity | Pressure | Rain* | Wind** | Luminosity | Snow |
|---|---|---|---|---|---|---|---|
| 1787474786 | 20° C | 45% | 1023.9 hPa | - | - | - | - |
| 1787474246 | 20.56° C | 42% | 1024 hPa | - | - | - | - |
| 1787473703 | 21.11° C | 44% | 1024.1 hPa | - | - | - | - |
| 1787473160 | 20.56° C | 47% | 1024.1 hPa | - | - | - | - |
| 1787472623 | 18.89° C | 49% | 1024.1 hPa | - | - | - | - |
| 1787471540 | 16.11° C | 55% | 1024 hPa | - | - | - | - |
| 1787471002 | 15.56° C | 57% | 1024 hPa | - | - | - | - |
| 1787469915 | 15° C | 57% | 1024.1 hPa | - | - | - | - |
| 1787469376 | 15° C | 57% | 1024.2 hPa | - | - | - | - |
| 1787468835 | 14.44° C | 58% | 1024.1 hPa | - | - | - | - |
| 1787468294 | 14.44° C | 60% | 1024.1 hPa | - | - | - | - |
| 1787467755 | 13.89° C | 59% | 1024.1 hPa | - | - | - | - |
| 1787467215 | 13.89° C | 59% | 1023.9 hPa | - | - | - | - |
| 1787466130 | 13.89° C | 60% | 1024 hPa | - | - | - | - |
| 1787465581 | 13.89° C | 61% | 1023.9 hPa | - | - | - | - |
| 1787464491 | 13.33° C | 60% | 1023.7 hPa | - | - | - | - |
| 1787463950 | 13.33° C | 60% | 1023.6 hPa | - | - | - | - |
| 1787463410 | 13.33° C | 62% | 1023.6 hPa | - | - | - | - |
| 1787462866 | 12.78° C | 64% | 1023.5 hPa | - | - | - | - |
| 1787462323 | 12.78° C | 65% | 1023.4 hPa | - | - | - | - |
| 1787461779 | 12.78° C | 65% | 1023.3 hPa | - | - | - | - |
| 1787461230 | 12.78° C | 66% | 1023.3 hPa | - | - | - | - |
| 1787460682 | 12.78° C | 66% | 1023.3 hPa | - | - | - | - |
| 1787460137 | 12.78° C | 66% | 1023.2 hPa | - | - | - | - |
| 1787459594 | 12.78° C | 66% | 1023.2 hPa | - | - | - | - |
* Rain since midnight (hover to see other rain measurements)
** Current wind speed in m/s (hover to see current wind gust speed)